首页
METAR-TAF:

METAR-TAF

机场 :

Red Lake, 安大略省, 加拿大

纬度: 51-04N, 经度: 093-48W, 海拔: 375米

当前天气观测

该预报发布于1小时和10分钟前的10:00 UTC
静风
温度 11°C
湿度 94%
气压 1022 hPa
能見度: 16.1公里
散云层高于3800英尺
多云层高于7000英尺

METAR: CYRL 011000Z 00000KT 10SM SCT038 BKN070 11/10 A3018 RMK SC4AC3 BR FU SLP228

时间: 06:10 (11:10 UTC)

预报

该预报发布于32分钟前的10:38 UTC
预报有效从01日的 11点(UTC)到 01日的 23点(UTC)
风速5节,风向西
能見度: 10公里
少量云层高于4000英尺
散云层高于7000英尺
短暂存在
从 01日的 11点(UTC)到 01日的 18点(UTC)
能見度: 8.0公里
从 01日的 1800点(UTC)
风速8节,风向西转西北
能見度: 6.4公里
散云层高于5000英尺
短暂存在
从 01日的 18点(UTC)到 01日的 23点(UTC)
能見度: 9.7公里

TAF: CYRL 011038Z 0111/0123 28005KT P6SM FEW040 SCT070 TEMPO 0111/0118 5SM FU FM011800 30008KT 4SM FU SCT050 TEMPO 0118/0123 6SM FU RMK NXT FCST BY 011400Z

超过4000个机场的气象观测和天气预报(METAR&TAF报告)。

可查询的气象台以黄色和红色小点在地图上表示。

将鼠标移到小点上方,可查看气象台名称。

然后点击查看天气观测和预报。

如需切换地图:点击带黑十字的绿色按钮放大地图;点击带横线的绿色按钮缩小地图;或者点击绿色箭头查看邻近地区的地图。


METAR-TAF: